createdAt,value
2023-03-10T00:00:22.566Z,71.39
2023-03-10T00:02:50.331Z,71.61
2023-03-10T00:05:18.508Z,71.72
2023-03-10T00:07:46.787Z,71.58
2023-03-10T00:10:14.289Z,71.55
2023-03-10T00:12:43.435Z,71.62
2023-03-10T00:15:11.202Z,71.17
2023-03-10T00:17:39.708Z,71.14
2023-03-10T00:20:11.004Z,71.19
2023-03-10T00:22:42.110Z,71.26
2023-03-10T00:25:09.833Z,71.03
2023-03-10T00:27:36.965Z,71.05
2023-03-10T00:30:04.646Z,71.03
2023-03-10T00:32:33.651Z,70.70
2023-03-10T00:35:00.900Z,70.62
2023-03-10T00:37:27.761Z,70.77
2023-03-10T00:39:55.137Z,70.89
2023-03-10T00:42:22.356Z,70.93
2023-03-10T00:44:49.328Z,71.00
2023-03-10T00:47:16.447Z,71.04
2023-03-10T00:49:43.605Z,71.05
2023-03-10T00:52:12.153Z,71.09
2023-03-10T00:54:40.873Z,71.01
2023-03-10T00:57:08.537Z,71.02
2023-03-10T00:59:49.462Z,71.26
2023-03-10T01:02:18.604Z,71.46
2023-03-10T01:04:47.748Z,71.51
2023-03-10T01:07:16.085Z,71.49
2023-03-10T01:09:44.050Z,71.31
2023-03-10T01:12:12.843Z,71.37
2023-03-10T01:14:40.196Z,71.29
2023-03-10T01:17:08.263Z,71.29
2023-03-10T01:19:35.414Z,71.47
2023-03-10T01:22:02.263Z,71.36
2023-03-10T01:24:29.223Z,71.41
2023-03-10T01:26:56.157Z,71.38
2023-03-10T01:29:23.331Z,71.47
2023-03-10T01:31:50.377Z,71.55
2023-03-10T01:34:18.110Z,71.74
2023-03-10T01:36:44.873Z,72.01
2023-03-10T01:39:13.446Z,72.11
2023-03-10T01:41:41.304Z,71.97
2023-03-10T01:44:19.508Z,71.98
2023-03-10T01:46:50.906Z,72.13
2023-03-10T01:49:49.241Z,72.03
2023-03-10T01:52:22.351Z,71.85
2023-03-10T01:54:52.454Z,71.83
2023-03-10T01:57:21.883Z,71.73
2023-03-10T01:59:50.743Z,71.34
2023-03-10T02:02:18.278Z,71.19
2023-03-10T02:04:49.875Z,70.93
2023-03-10T02:07:26.460Z,71.14
2023-03-10T02:09:53.988Z,71.08
2023-03-10T02:12:20.943Z,71.17
2023-03-10T02:14:52.516Z,71.18
2023-03-10T02:17:21.224Z,71.23
2023-03-10T02:20:13.289Z,71.02
2023-03-10T02:22:41.215Z,70.99
2023-03-10T02:25:44.514Z,71.10
2023-03-10T02:28:14.708Z,70.95
2023-03-10T02:30:50.044Z,70.94
2023-03-10T02:33:28.151Z,71.04
2023-03-10T02:36:03.205Z,70.79
2023-03-10T02:38:30.035Z,70.40
2023-03-10T02:40:57.081Z,70.45
2023-03-10T02:43:28.631Z,70.75
2023-03-10T02:46:02.467Z,70.52
2023-03-10T02:48:32.473Z,70.39
2023-03-10T02:51:02.389Z,70.78
2023-03-10T02:53:29.810Z,70.56
2023-03-10T02:55:57.187Z,70.07
2023-03-10T02:58:25.151Z,70.16
2023-03-10T03:00:51.979Z,70.17
2023-03-10T03:03:20.375Z,69.76
2023-03-10T03:05:48.854Z,69.62
2023-03-10T03:08:19.626Z,69.56
2023-03-10T03:10:46.774Z,69.28
2023-03-10T03:13:13.711Z,68.91
2023-03-10T03:15:40.731Z,68.62
2023-03-10T03:18:09.940Z,68.64
2023-03-10T03:20:37.727Z,68.86
2023-03-10T03:23:08.942Z,68.70
2023-03-10T03:25:38.575Z,68.77
2023-03-10T03:28:11.856Z,68.76
2023-03-10T03:30:39.915Z,68.38
2023-03-10T03:33:07.168Z,68.26
2023-03-10T03:35:36.082Z,68.59
2023-03-10T03:38:04.230Z,68.71
2023-03-10T03:40:33.257Z,68.28
2023-03-10T03:43:00.333Z,67.90
2023-03-10T03:45:28.783Z,67.94
2023-03-10T03:47:56.313Z,67.60
2023-03-10T03:50:23.363Z,67.20
2023-03-10T03:52:50.823Z,67.29
2023-03-10T03:55:19.287Z,67.49
2023-03-10T03:57:46.863Z,67.62
2023-03-10T04:00:19.561Z,66.99
2023-03-10T04:02:46.974Z,66.90
2023-03-10T04:05:19.797Z,67.21
2023-03-10T04:07:49.601Z,67.57
2023-03-10T04:10:19.799Z,67.57
2023-03-10T04:12:47.590Z,67.57
2023-03-10T04:15:15.250Z,67.50
2023-03-10T04:17:43.121Z,67.34
2023-03-10T04:20:13.947Z,67.25
2023-03-10T04:22:44.557Z,67.37
2023-03-10T04:25:11.527Z,67.07
2023-03-10T04:27:40.314Z,67.04
2023-03-10T04:30:09.701Z,67.02
2023-03-10T04:32:40.156Z,67.14
2023-03-10T04:35:07.798Z,67.13
2023-03-10T04:37:40.593Z,66.91
2023-03-10T04:40:12.153Z,66.88
2023-03-10T04:42:39.197Z,66.41
2023-03-10T04:45:07.513Z,66.61
2023-03-10T04:47:35.440Z,66.20
2023-03-10T04:50:06.488Z,65.79
2023-03-10T04:52:33.734Z,65.96
2023-03-10T04:55:00.885Z,66.08
2023-03-10T04:57:27.836Z,66.07
2023-03-10T04:59:55.351Z,65.76
2023-03-10T05:02:22.432Z,65.29
2023-03-10T05:04:49.504Z,65.35
2023-03-10T05:07:16.357Z,65.19
2023-03-10T05:09:49.392Z,65.28
2023-03-10T05:12:16.260Z,65.54
2023-03-10T05:14:44.741Z,65.43
2023-03-10T05:17:11.893Z,65.09
2023-03-10T05:19:38.700Z,65.09
2023-03-10T05:22:11.137Z,65.27
2023-03-10T05:24:37.984Z,65.48
2023-03-10T05:27:07.764Z,65.60
2023-03-10T05:29:38.814Z,65.42
2023-03-10T05:32:14.362Z,65.23
2023-03-10T05:34:46.212Z,65.32
2023-03-10T05:37:12.912Z,65.63
2023-03-10T05:39:39.594Z,65.87
2023-03-10T05:42:12.036Z,65.51
2023-03-10T05:44:39.218Z,65.25
2023-03-10T05:47:08.584Z,64.85
2023-03-10T05:49:38.640Z,64.43
2023-03-10T05:52:06.482Z,64.19
2023-03-10T05:54:33.952Z,63.81
2023-03-10T05:57:01.249Z,63.45
2023-03-10T05:59:28.568Z,62.89
2023-03-10T06:01:55.830Z,62.84
2023-03-10T06:04:22.724Z,62.24
2023-03-10T06:06:50.944Z,61.94
2023-03-10T06:09:17.874Z,62.27
2023-03-10T06:11:48.743Z,61.98
2023-03-10T06:14:16.180Z,62.15
2023-03-10T06:16:48.827Z,62.08
2023-03-10T06:19:17.854Z,62.13
2023-03-10T06:21:44.807Z,61.97
2023-03-10T06:24:11.537Z,62.08
2023-03-10T06:26:39.411Z,62.04
2023-03-10T06:29:06.731Z,61.88
2023-03-10T06:31:33.855Z,61.96
2023-03-10T06:34:04.220Z,61.57
2023-03-10T06:36:32.109Z,60.88
2023-03-10T06:38:58.842Z,60.96
2023-03-10T06:41:27.749Z,60.74
2023-03-10T06:43:54.690Z,60.05
2023-03-10T06:46:24.860Z,59.93
2023-03-10T06:48:52.169Z,59.55
2023-03-10T06:51:19.315Z,59.85
2023-03-10T06:53:51.174Z,59.84
2023-03-10T06:56:19.974Z,59.89
2023-03-10T06:58:49.072Z,60.08
2023-03-10T07:01:32.777Z,59.83
2023-03-10T07:04:00.595Z,60.00
2023-03-10T07:06:31.503Z,60.12
2023-03-10T07:09:18.419Z,59.97
2023-03-10T07:11:45.264Z,60.01
2023-03-10T07:14:12.216Z,60.14
2023-03-10T07:16:39.918Z,60.39
2023-03-10T07:19:07.117Z,60.55
2023-03-10T07:21:35.599Z,60.23
2023-03-10T07:24:02.780Z,59.65
2023-03-10T07:26:30.208Z,59.48
2023-03-10T07:28:58.172Z,59.25
2023-03-10T07:31:25.925Z,59.21
2023-03-10T07:33:53.889Z,58.70
2023-03-10T07:36:23.784Z,58.79
2023-03-10T07:38:51.185Z,58.60
2023-03-10T07:41:19.278Z,58.19
2023-03-10T07:43:47.282Z,57.65
2023-03-10T07:46:14.816Z,57.02
2023-03-10T07:48:41.755Z,56.91
2023-03-10T07:51:08.981Z,56.59
2023-03-10T07:53:36.949Z,56.42
2023-03-10T07:56:07.892Z,56.37
2023-03-10T07:58:35.629Z,56.45
2023-03-10T08:01:02.916Z,56.48
2023-03-10T08:03:30.017Z,56.06
2023-03-10T08:05:59.092Z,56.24
2023-03-10T08:08:30.537Z,56.22
2023-03-10T08:11:04.804Z,56.06
2023-03-10T08:13:33.108Z,56.07
2023-03-10T08:16:00.615Z,55.90
2023-03-10T08:18:29.261Z,55.76
2023-03-10T08:20:56.965Z,55.34
2023-03-10T08:23:28.049Z,55.23
2023-03-10T08:25:55.031Z,55.20
2023-03-10T08:28:22.037Z,55.09
2023-03-10T08:31:02.907Z,55.10
2023-03-10T08:33:32.829Z,54.95
2023-03-10T08:36:12.104Z,54.03
2023-03-10T08:38:39.926Z,53.62
2023-03-10T08:41:12.000Z,53.96
2023-03-10T08:43:39.156Z,54.27
2023-03-10T08:46:08.449Z,54.39
2023-03-10T08:48:35.599Z,54.44
2023-03-10T08:51:03.463Z,54.22
2023-03-10T08:53:32.080Z,54.34
2023-03-10T08:55:58.890Z,54.41
2023-03-10T08:58:25.875Z,54.19
2023-03-10T09:00:56.434Z,53.90
2023-03-10T09:03:23.640Z,54.17
2023-03-10T09:05:50.884Z,54.01
2023-03-10T09:08:18.355Z,53.62
2023-03-10T09:10:47.266Z,53.65
2023-03-10T09:13:14.600Z,53.38
2023-03-10T09:17:31.057Z,54.04
2023-03-10T09:19:59.783Z,53.35
2023-03-10T09:22:28.153Z,53.51
2023-03-10T09:24:58.750Z,53.46
2023-03-10T09:27:28.596Z,53.35
2023-03-10T09:29:58.779Z,53.47
2023-03-10T09:32:28.859Z,53.35
2023-03-10T09:34:57.422Z,53.33
2023-03-10T09:37:25.903Z,52.74
2023-03-10T09:39:54.811Z,52.84
2023-03-10T09:42:38.954Z,53.33
2023-03-10T09:45:17.754Z,53.23
2023-03-10T09:48:05.011Z,53.03
2023-03-10T09:50:39.718Z,52.81
2023-03-10T09:53:13.424Z,52.96
2023-03-10T09:55:47.726Z,52.94
2023-03-10T09:58:40.083Z,52.68
2023-03-10T10:01:15.842Z,52.28
2023-03-10T10:03:52.945Z,52.57
2023-03-10T10:06:30.295Z,52.61
2023-03-10T10:09:10.110Z,52.21
2023-03-10T10:11:40.786Z,51.94
2023-03-10T10:14:30.437Z,52.03
2023-03-10T10:17:21.606Z,51.50
2023-03-10T10:19:53.032Z,51.24
2023-03-10T10:22:24.381Z,51.05
2023-03-10T10:25:09.878Z,50.67
2023-03-10T10:27:39.484Z,50.54
2023-03-10T10:30:29.830Z,50.67
2023-03-10T10:33:08.241Z,50.63
2023-03-10T10:35:41.300Z,50.60
2023-03-10T10:38:09.441Z,50.31
2023-03-10T10:40:51.034Z,50.09
2023-03-10T10:43:20.634Z,50.12
2023-03-10T10:45:56.842Z,50.10
2023-03-10T10:48:39.614Z,49.86
2023-03-10T10:51:29.307Z,49.91
2023-03-10T10:54:02.702Z,50.18
2023-03-10T10:56:31.281Z,50.24
2023-03-10T10:59:19.839Z,50.17
2023-03-10T11:01:52.509Z,49.68
2023-03-10T11:04:22.120Z,49.62
2023-03-10T11:06:50.981Z,49.82
2023-03-10T11:09:21.747Z,49.98
2023-03-10T11:11:53.602Z,50.07
2023-03-10T11:15:08.017Z,50.05
2023-03-10T11:18:09.266Z,50.02
2023-03-10T11:20:59.622Z,50.13
2023-03-10T11:23:39.731Z,50.23
2023-03-10T11:26:42.587Z,50.14
2023-03-10T11:29:29.300Z,50.03
2023-03-10T11:32:18.803Z,49.83
2023-03-10T11:34:54.008Z,49.78
2023-03-10T11:37:31.364Z,49.94
2023-03-10T11:40:37.730Z,49.89
2023-03-10T11:43:25.363Z,49.67
2023-03-10T11:45:54.699Z,49.72
2023-03-10T11:48:38.707Z,50.03
2023-03-10T11:51:08.940Z,49.90
2023-03-10T11:53:51.341Z,49.71
2023-03-10T11:56:21.872Z,49.58
2023-03-10T11:59:13.229Z,49.40
2023-03-10T12:01:56.123Z,49.55
2023-03-10T12:04:28.081Z,49.64
2023-03-10T12:07:00.544Z,49.66
2023-03-10T12:09:38.439Z,49.66
2023-03-10T12:12:07.540Z,49.79
2023-03-10T12:14:37.382Z,49.94
2023-03-10T12:17:06.372Z,50.12
2023-03-10T12:19:34.932Z,50.25
2023-03-10T12:22:21.644Z,50.33
2023-03-10T12:24:51.045Z,50.32
2023-03-10T12:27:24.341Z,50.44
2023-03-10T12:29:53.947Z,50.60
2023-03-10T12:32:44.536Z,50.75
2023-03-10T12:35:23.451Z,50.84
2023-03-10T12:38:16.368Z,50.92
2023-03-10T12:40:51.577Z,50.65
2023-03-10T12:43:43.391Z,50.70
2023-03-10T12:46:12.764Z,50.44
2023-03-10T12:48:46.984Z,50.46
2023-03-10T12:51:18.544Z,50.49
2023-03-10T12:53:55.389Z,50.49
2023-03-10T12:56:34.268Z,50.41
2023-03-10T12:59:25.622Z,50.36
2023-03-10T13:01:56.197Z,49.56
2023-03-10T13:04:31.356Z,49.42
2023-03-10T13:07:04.219Z,49.64
2023-03-10T13:09:39.470Z,49.16
2023-03-10T13:12:15.164Z,49.11
2023-03-10T13:14:45.972Z,47.43
2023-03-10T13:17:25.732Z,45.79
2023-03-10T13:20:14.826Z,44.25
2023-03-10T13:22:58.834Z,42.49
2023-03-10T13:25:27.206Z,40.00
2023-03-10T13:27:57.720Z,37.77
2023-03-10T13:30:29.488Z,35.88
2023-03-10T13:32:59.794Z,34.42
2023-03-10T13:35:37.517Z,33.23
2023-03-10T13:38:17.791Z,32.65
2023-03-10T13:41:03.265Z,31.87
2023-03-10T13:43:38.195Z,30.06
2023-03-10T13:46:17.853Z,29.43
2023-03-10T13:48:46.359Z,28.31
2023-03-10T13:51:32.235Z,27.86
2023-03-10T13:54:31.507Z,27.72
2023-03-10T13:57:07.675Z,27.22
2023-03-10T13:59:35.844Z,26.64
2023-03-10T14:02:04.121Z,26.20
2023-03-10T14:04:47.363Z,25.49
2023-03-10T14:07:22.223Z,25.43
2023-03-10T14:10:06.183Z,25.13
2023-03-10T14:12:40.686Z,24.93
2023-03-10T14:15:14.757Z,24.05
2023-03-10T14:17:43.889Z,23.71
2023-03-10T14:20:33.017Z,24.25
2023-03-10T14:23:26.579Z,23.96
2023-03-10T14:25:56.920Z,24.19
2023-03-10T14:28:29.384Z,24.14
2023-03-10T14:31:00.927Z,24.14
2023-03-10T14:33:29.149Z,24.25
2023-03-10T14:35:57.875Z,24.11
2023-03-10T14:38:29.762Z,23.90
2023-03-10T14:40:59.174Z,24.07
2023-03-10T14:43:27.669Z,24.44
2023-03-10T14:45:57.900Z,24.42
2023-03-10T14:48:28.375Z,24.57
2023-03-10T14:50:57.136Z,24.81
2023-03-10T14:53:26.723Z,24.95
2023-03-10T14:55:56.208Z,25.28
2023-03-10T14:58:44.953Z,25.30
2023-03-10T15:01:13.573Z,25.48
2023-03-10T15:03:42.613Z,25.83
2023-03-10T15:06:14.370Z,26.49
2023-03-10T15:08:46.490Z,27.26
2023-03-10T15:11:17.415Z,27.71
2023-03-10T15:13:50.481Z,28.20
2023-03-10T15:16:19.723Z,28.64
2023-03-10T15:18:49.415Z,29.06
2023-03-10T15:21:17.885Z,29.98
2023-03-10T15:23:46.680Z,31.18
2023-03-10T15:26:14.960Z,32.26
2023-03-10T15:28:43.186Z,33.35
2023-03-10T15:31:12.817Z,34.42
2023-03-10T15:33:41.013Z,35.62
2023-03-10T15:36:13.665Z,36.60
2023-03-10T15:38:43.607Z,37.52
2023-03-10T15:41:17.558Z,38.32
2023-03-10T15:43:46.031Z,39.16
2023-03-10T15:46:15.007Z,39.92
2023-03-10T15:48:43.882Z,40.73
2023-03-10T15:51:17.404Z,41.49
2023-03-10T15:53:45.869Z,42.20
2023-03-10T15:56:15.592Z,42.83
2023-03-10T15:58:43.848Z,43.36
2023-03-10T16:01:16.732Z,43.88
2023-03-10T16:03:45.080Z,44.30
2023-03-10T16:06:14.105Z,44.61
2023-03-10T16:08:42.800Z,45.13
2023-03-10T16:11:18.309Z,45.62
2023-03-10T16:13:49.716Z,46.02
2023-03-10T16:16:19.492Z,46.53
2023-03-10T16:18:47.877Z,46.75
2023-03-10T16:21:20.888Z,47.09
2023-03-10T16:23:50.080Z,47.49
2023-03-10T16:26:22.953Z,47.85
2023-03-10T16:28:53.808Z,48.11
2023-03-10T16:31:23.639Z,48.32
2023-03-10T16:33:52.310Z,48.59
2023-03-10T16:36:25.172Z,48.83
2023-03-10T16:38:56.441Z,49.27
2023-03-10T16:41:25.017Z,49.62
2023-03-10T16:43:54.915Z,49.85
2023-03-10T16:46:30.295Z,50.06
2023-03-10T16:49:01.703Z,50.24
2023-03-10T16:51:38.202Z,50.50
2023-03-10T16:54:10.411Z,50.66
2023-03-10T16:56:41.181Z,50.86
2023-03-10T16:59:21.843Z,51.07
2023-03-10T17:01:50.747Z,51.32
2023-03-10T17:04:19.227Z,51.71
2023-03-10T17:06:48.069Z,51.90
2023-03-10T17:09:17.306Z,52.06
2023-03-10T17:11:47.224Z,52.16
2023-03-10T17:14:16.010Z,52.49
2023-03-10T17:16:46.375Z,52.85
2023-03-10T17:19:16.810Z,53.09
2023-03-10T17:21:49.546Z,53.41
2023-03-10T17:24:18.998Z,53.69
2023-03-10T17:26:47.756Z,53.92
2023-03-10T17:29:16.228Z,54.21
2023-03-10T17:31:49.270Z,54.48
2023-03-10T17:34:17.852Z,54.77
2023-03-10T17:36:46.858Z,54.81
2023-03-10T17:39:18.877Z,54.95
2023-03-10T17:41:48.270Z,55.11
2023-03-10T17:44:21.045Z,55.30
2023-03-10T17:46:50.475Z,55.51
2023-03-10T17:49:20.154Z,55.71
2023-03-10T17:51:48.737Z,55.70
2023-03-10T17:54:20.218Z,55.80
2023-03-10T17:56:48.917Z,55.92
2023-03-10T17:59:17.160Z,56.28
2023-03-10T18:01:45.966Z,56.60
2023-03-10T18:04:14.236Z,56.65
2023-03-10T18:06:43.020Z,56.82
2023-03-10T18:09:31.055Z,57.02
2023-03-10T18:12:00.456Z,57.25
2023-03-10T18:14:30.144Z,57.40
2023-03-10T18:16:58.443Z,57.50
2023-03-10T18:19:32.149Z,57.78
2023-03-10T18:22:08.208Z,57.81
2023-03-10T18:24:43.252Z,58.04
2023-03-10T18:27:12.181Z,58.21
2023-03-10T18:29:40.307Z,58.31
2023-03-10T18:32:08.901Z,58.32
2023-03-10T18:34:38.087Z,58.29
2023-03-10T18:37:06.353Z,58.29
2023-03-10T18:39:36.633Z,58.25
2023-03-10T18:42:04.964Z,58.27
2023-03-10T18:44:39.200Z,58.12
2023-03-10T18:47:07.663Z,58.09
2023-03-10T18:49:36.246Z,58.09
2023-03-10T18:52:04.751Z,58.06
2023-03-10T18:54:33.224Z,58.15
2023-03-10T18:57:01.897Z,58.33
2023-03-10T18:59:31.710Z,58.51
2023-03-10T19:02:00.012Z,58.68
2023-03-10T19:04:29.082Z,58.85
2023-03-10T19:06:58.177Z,59.05
2023-03-10T19:09:27.887Z,59.25
2023-03-10T19:11:56.591Z,59.41
2023-03-10T19:14:25.259Z,59.44
2023-03-10T19:16:53.734Z,59.51
2023-03-10T19:19:22.428Z,59.59
2023-03-10T19:21:50.909Z,59.61
2023-03-10T19:24:19.089Z,59.61
2023-03-10T19:26:49.438Z,59.55
2023-03-10T19:29:17.787Z,59.65
2023-03-10T19:31:48.451Z,59.62
2023-03-10T19:34:18.547Z,59.61
2023-03-10T19:36:47.025Z,59.54
2023-03-10T19:39:16.223Z,59.50
2023-03-10T19:41:44.600Z,59.50
2023-03-10T19:44:12.672Z,59.55
2023-03-10T19:46:40.924Z,59.48
2023-03-10T19:49:10.248Z,59.66
2023-03-10T19:51:38.571Z,59.75
2023-03-10T19:54:07.727Z,59.86
2023-03-10T19:56:38.459Z,60.00
2023-03-10T19:59:07.044Z,60.14
2023-03-10T20:01:40.452Z,60.51
2023-03-10T20:04:10.152Z,60.57
2023-03-10T20:06:38.216Z,60.47
2023-03-10T20:09:11.111Z,60.63
2023-03-10T20:11:40.533Z,60.70
2023-03-10T20:14:09.131Z,60.81
2023-03-10T20:16:40.563Z,60.81
2023-03-10T20:19:08.823Z,60.89
2023-03-10T20:21:37.113Z,60.95
2023-03-10T20:24:06.607Z,61.09
2023-03-10T20:26:35.194Z,61.26
2023-03-10T20:29:04.796Z,61.25
2023-03-10T20:31:34.648Z,61.53
2023-03-10T20:34:03.807Z,61.71
2023-03-10T20:36:32.083Z,61.86
2023-03-10T20:39:02.924Z,61.87
2023-03-10T20:41:31.064Z,61.87
2023-03-10T20:43:59.476Z,61.91
2023-03-10T20:46:28.214Z,61.87
2023-03-10T20:48:56.437Z,62.06
2023-03-10T20:51:25.435Z,62.07
2023-03-10T20:53:57.309Z,61.98
2023-03-10T20:56:25.567Z,61.89
2023-03-10T20:59:02.034Z,62.07
2023-03-10T21:01:30.733Z,62.26
2023-03-10T21:03:59.339Z,62.24
2023-03-10T21:06:28.926Z,62.45
2023-03-10T21:09:05.935Z,62.50
2023-03-10T21:11:37.343Z,62.35
2023-03-10T21:14:06.463Z,62.30
2023-03-10T21:16:39.434Z,62.24
2023-03-10T21:19:13.248Z,62.35
2023-03-10T21:21:43.059Z,62.31
2023-03-10T21:24:11.269Z,62.39
2023-03-10T21:26:45.137Z,62.33
2023-03-10T21:29:13.358Z,62.40
2023-03-10T21:31:41.692Z,62.43
2023-03-10T21:46:04.660Z,61.82
2023-03-10T21:48:31.473Z,60.37
2023-03-10T21:50:58.530Z,60.08
2023-03-10T21:53:26.348Z,60.11
2023-03-10T21:55:53.742Z,60.05
2023-03-10T21:58:22.744Z,60.08
2023-03-10T22:00:49.890Z,60.02
2023-03-10T22:03:17.274Z,59.94
2023-03-10T22:05:44.294Z,59.89
2023-03-10T22:08:17.304Z,59.90
2023-03-10T22:10:45.040Z,59.85
2023-03-10T22:13:12.231Z,59.91
2023-03-10T22:15:40.426Z,59.85
2023-03-10T22:18:08.336Z,59.83
2023-03-10T22:20:38.257Z,59.94
2023-03-10T22:23:05.402Z,60.01
2023-03-10T22:25:34.299Z,59.96
2023-03-10T22:28:01.586Z,60.09
2023-03-10T22:30:30.028Z,60.22
2023-03-10T22:32:57.076Z,60.30
2023-03-10T22:35:24.121Z,60.35
2023-03-10T22:37:51.304Z,60.31
2023-03-10T22:40:22.517Z,60.45
2023-03-10T22:42:49.588Z,60.47
2023-03-10T22:45:26.849Z,60.48
2023-03-10T22:47:55.763Z,60.46
2023-03-10T22:50:28.115Z,60.40
2023-03-10T22:52:54.955Z,60.41
2023-03-10T22:55:23.953Z,60.46
2023-03-10T22:57:53.050Z,60.46
2023-03-10T23:00:21.500Z,60.48
2023-03-10T23:02:49.158Z,60.48
2023-03-10T23:05:16.751Z,60.49
2023-03-10T23:07:44.212Z,60.56
2023-03-10T23:10:25.424Z,60.62
2023-03-10T23:12:52.682Z,60.81
2023-03-10T23:15:31.163Z,60.81
2023-03-10T23:17:58.827Z,60.84
2023-03-10T23:20:28.941Z,61.09
2023-03-10T23:22:58.579Z,61.24
2023-03-10T23:25:26.783Z,61.18
2023-03-10T23:27:53.877Z,61.04
2023-03-10T23:30:21.033Z,61.05
2023-03-10T23:32:48.754Z,61.07
2023-03-10T23:35:18.398Z,61.33
2023-03-10T23:37:45.955Z,61.58
2023-03-10T23:40:14.220Z,61.90
2023-03-10T23:42:42.203Z,61.91
2023-03-10T23:45:14.319Z,61.91
2023-03-10T23:47:41.317Z,61.89
2023-03-10T23:50:08.978Z,61.91
2023-03-10T23:52:38.217Z,61.96
2023-03-10T23:55:05.741Z,62.11
2023-03-10T23:57:32.586Z,62.19
